Time;durP1;ratioP1;P1;durP2;ratioP2;P2;SDS_P1;SDS_P2;PMS_P1;PMS_P2;Temp;Humidity;BMP_temperature;BMP_pressure;BME280_temperature;BME280_humidity;BME280_pressure;Samples;Min_cycle;Max_cycle;Signal;HPM_P1;HPM_P2
2022/05/23 00:00:30;;;;;;;1.03;0.93;;;10.50;99.90;10.50;100346.00;;;;4956130;28;87058;-68
2022/05/23 00:02:56;;;;;;;12.03;1.40;;;10.50;99.90;10.50;100342.00;;;;4956492;28;87555;-68
2022/05/23 00:05:21;;;;;;;0.93;0.90;;;10.50;99.90;10.50;100353.00;;;;4953455;28;118247;-68
2022/05/23 00:07:49;;;;;;;1.37;0.93;;;10.50;99.90;10.50;100349.00;;;;4954257;28;116723;-68
2022/05/23 00:10:18;;;;;;;1.20;1.10;;;10.50;99.90;10.40;100349.00;;;;4970780;28;88394;-68
2022/05/23 00:12:44;;;;;;;1.67;1.17;;;10.40;99.90;10.40;100351.00;;;;4955755;28;87719;-68
2022/05/23 00:15:12;;;;;;;0.80;0.80;;;10.40;99.90;10.40;100344.00;;;;4936649;28;89405;-68
2022/05/23 00:17:38;;;;;;;1.47;0.90;;;10.40;99.90;10.30;100357.00;;;;4955659;28;87787;-68
2022/05/23 00:20:07;;;;;;;2.10;0.83;;;10.40;99.90;10.30;100352.00;;;;4970067;28;88042;-68
2022/05/23 00:22:33;;;;;;;2.73;1.20;;;10.30;99.90;10.30;100347.00;;;;4955577;28;87767;-68
2022/05/23 00:24:59;;;;;;;1.10;1.10;;;10.30;99.90;10.20;100342.00;;;;4954722;28;87731;-68
2022/05/23 00:27:25;;;;;;;1.40;0.80;;;10.30;99.90;10.20;100336.00;;;;4954360;28;115678;-68
2022/05/23 00:29:52;;;;;;;1.70;1.60;;;10.20;99.90;10.10;100340.00;;;;4970391;28;87818;-68
2022/05/23 00:35:19;;;;;;;1.70;0.60;;;10.10;99.90;10.10;100331.00;;;;4953789;28;87779;-68
2022/05/23 00:37:46;;;;;;;1.43;1.00;;;10.10;99.90;10.00;100323.00;;;;4955364;28;88053;-68
2022/05/23 00:43:13;;;;;;;3.50;0.87;;;10.10;99.90;10.00;100317.00;;;;4953867;28;103429;-68
2022/05/23 00:43:39;;;;;;;1.53;1.43;;;10.00;99.90;9.90;100307.00;;;;4944867;28;87747;-68
2022/05/23 00:46:05;;;;;;;1.27;1.17;;;10.10;99.90;9.90;100304.00;;;;4972613;28;117739;-68
2022/05/23 00:48:31;;;;;;;2.20;1.13;;;10.00;99.90;9.90;100298.00;;;;4943399;28;115592;-68
2022/05/23 00:51:07;;;;;;;1.23;1.13;;;9.90;99.90;9.90;100294.00;;;;4955291;28;87013;-68
2022/05/23 00:53:40;;;;;;;1.67;1.43;;;9.90;99.90;9.80;100292.00;;;;4961627;28;87954;-68
2022/05/23 00:56:11;;;;;;;1.47;1.13;;;9.90;99.90;9.80;100287.00;;;;4939762;28;96225;-68
2022/05/23 00:58:44;;;;;;;1.27;0.87;;;9.90;99.90;9.80;100284.00;;;;4973210;28;99337;-68
2022/05/23 01:01:17;;;;;;;1.00;1.00;;;9.80;99.90;9.70;100282.00;;;;4972786;28;103882;-68
2022/05/23 01:03:43;;;;;;;1.70;1.20;;;9.80;99.90;9.70;100274.00;;;;4972507;28;102193;-68
2022/05/23 01:06:09;;;;;;;1.23;0.90;;;9.70;99.90;9.70;100279.00;;;;4957104;28;117437;-68
2022/05/23 01:08:37;;;;;;;1.83;1.10;;;9.70;99.90;9.70;100267.00;;;;4957497;28;116711;-68
2022/05/23 01:11:03;;;;;;;0.83;0.83;;;9.70;99.90;9.70;100267.00;;;;4972750;28;87893;-68
2022/05/23 01:13:30;;;;;;;0.83;0.80;;;9.70;99.90;9.60;100266.00;;;;4973612;28;87835;-68
2022/05/23 01:15:55;;;;;;;1.13;1.03;;;9.70;99.90;9.60;100272.00;;;;4958488;28;92716;-67
2022/05/23 01:18:21;;;;;;;1.40;1.13;;;9.70;99.90;9.60;100267.00;;;;4957069;28;109867;-68
2022/05/23 01:20:57;;;;;;;2.80;1.27;;;9.60;99.90;9.50;100266.00;;;;4957460;28;109836;-68
2022/05/23 01:23:49;;;;;;;1.27;1.10;;;9.60;99.90;9.50;100264.00;;;;4972603;28;88839;-68
2022/05/23 01:26:15;;;;;;;1.10;1.00;;;9.60;99.90;9.50;100268.00;;;;4956518;28;90000;-68
2022/05/23 01:28:42;;;;;;;1.40;1.30;;;9.50;99.90;9.50;100270.00;;;;4971629;28;117060;-68
2022/05/23 01:31:13;;;;;;;1.50;1.40;;;9.50;99.90;9.40;100262.00;;;;4957580;28;97256;-67
2022/05/23 01:33:39;;;;;;;1.33;1.23;;;9.50;99.90;9.40;100263.00;;;;4958097;28;88019;-68
2022/05/23 01:36:11;;;;;;;4.27;1.73;;;9.40;99.90;9.30;100259.00;;;;4957837;28;88001;-68
2022/05/23 01:38:37;;;;;;;1.30;1.20;;;9.40;99.90;9.30;100263.00;;;;4957354;28;88801;-68
2022/05/23 01:41:04;;;;;;;1.80;1.70;;;9.30;99.90;9.20;100263.00;;;;4956946;28;111272;-68
2022/05/23 01:43:30;;;;;;;2.33;1.13;;;9.30;99.90;9.20;100265.00;;;;4957951;28;87886;-68
2022/05/23 01:45:58;;;;;;;2.40;1.40;;;9.20;99.90;9.10;100246.00;;;;4974255;28;117700;-68
2022/05/23 01:48:25;;;;;;;0.87;0.83;;;9.40;99.90;9.10;100249.00;;;;4960647;28;88584;-68
2022/05/23 01:50:50;;;;;;;1.13;0.80;;;9.10;99.90;9.10;100248.00;;;;4957519;28;87928;-67
2022/05/23 01:53:16;;;;;;;1.20;1.07;;;9.10;99.90;9.10;100247.00;;;;4958231;28;87671;-68
2022/05/23 01:55:42;;;;;;;1.43;1.33;;;9.10;99.90;9.10;100236.00;;;;4955990;28;117552;-68
2022/05/23 01:58:09;;;;;;;3.10;1.23;;;9.10;99.90;9.10;100230.00;;;;4957845;28;88650;-67
2022/05/23 02:03:20;;;;;;;1.40;0.97;;;9.10;99.90;9.10;100229.00;;;;4956055;28;87668;-68
2022/05/23 02:05:46;;;;;;;1.60;1.50;;;9.10;99.90;9.10;100230.00;;;;4938829;28;101506;-68
2022/05/23 02:08:11;;;;;;;2.10;1.07;;;9.10;99.90;9.10;100235.00;;;;4937945;28;111797;-67
2022/05/23 02:10:38;;;;;;;1.30;1.20;;;9.10;99.90;9.10;100252.00;;;;4956766;28;105656;-67
2022/05/23 02:13:04;;;;;;;1.40;1.23;;;9.10;99.90;9.10;100240.00;;;;4957652;28;88715;-67
2022/05/23 02:15:32;;;;;;;1.40;1.10;;;9.10;99.90;9.10;100242.00;;;;4971622;28;88341;-68
2022/05/23 02:18:02;;;;;;;2.47;1.43;;;9.20;99.90;9.10;100237.00;;;;4957952;28;87675;-68
2022/05/23 02:20:29;;;;;;;2.43;1.30;;;9.20;99.90;9.10;100240.00;;;;4956967;28;89340;-68
2022/05/23 02:22:55;;;;;;;1.43;1.27;;;9.10;99.90;9.10;100241.00;;;;4939593;28;87846;-67
2022/05/23 02:25:22;;;;;;;1.50;1.17;;;9.10;99.90;9.10;100233.00;;;;4956436;28;89332;-67
2022/05/23 02:27:48;;;;;;;2.07;1.80;;;9.10;99.90;9.00;100246.00;;;;4957012;28;88881;-69
2022/05/23 02:30:13;;;;;;;1.00;1.00;;;9.10;99.90;9.10;100241.00;;;;4957123;28;86885;-67
2022/05/23 02:32:39;;;;;;;4.43;2.10;;;9.10;99.90;9.00;100238.00;;;;4957654;28;87700;-67
2022/05/23 02:35:07;;;;;;;1.70;1.60;;;9.10;99.90;9.00;100240.00;;;;4956621;28;118075;-67
2022/05/23 02:37:32;;;;;;;2.17;1.50;;;9.10;99.90;9.00;100246.00;;;;4956823;28;88751;-67
2022/05/23 02:39:58;;;;;;;1.93;1.47;;;9.10;99.90;9.00;100239.00;;;;4957158;28;87851;-68
2022/05/23 02:42:24;;;;;;;2.03;1.50;;;9.00;99.90;9.00;100237.00;;;;4955903;28;108605;-68
2022/05/23 02:44:49;;;;;;;7.07;1.63;;;9.00;99.90;9.00;100242.00;;;;4965448;28;88131;-68
2022/05/23 02:47:15;;;;;;;2.10;1.33;;;9.00;99.90;8.90;100236.00;;;;4976154;28;89005;-67
2022/05/23 02:49:41;;;;;;;1.37;1.27;;;9.00;99.90;8.90;100240.00;;;;4939082;28;106971;-68
2022/05/23 02:52:07;;;;;;;2.40;1.47;;;9.00;99.90;8.90;100236.00;;;;4953746;28;107983;-66
2022/05/23 02:54:33;;;;;;;1.47;1.37;;;8.90;99.90;8.90;100229.00;;;;4918233;28;109933;-67
2022/05/23 02:56:58;;;;;;;1.30;1.20;;;8.90;99.90;8.80;100228.00;;;;4918210;28;88065;-66
2022/05/23 02:59:24;;;;;;;0.80;0.80;;;8.90;99.90;8.80;100228.00;;;;4955860;28;108336;-66
2022/05/23 03:04:34;;;;;;;1.10;0.93;;;8.80;99.90;8.70;100223.00;;;;4954783;28;87670;-66
2022/05/23 03:07:03;;;;;;;1.53;1.17;;;8.80;99.90;8.70;100235.00;;;;4956352;28;87807;-66
2022/05/23 03:09:30;;;;;;;1.40;1.30;;;8.70;99.90;8.60;100227.00;;;;4955434;28;99084;-66
2022/05/23 03:12:08;;;;;;;1.73;1.63;;;8.70;99.90;8.60;100222.00;;;;4956638;28;89216;-66
2022/05/23 03:14:34;;;;;;;1.30;1.20;;;8.70;99.90;8.50;100214.00;;;;4954953;28;109412;-66
2022/05/23 03:17:02;;;;;;;1.60;1.47;;;8.60;99.90;8.50;100216.00;;;;4954284;28;117127;-66
2022/05/23 03:20:06;;;;;;;1.27;1.17;;;8.60;99.90;8.40;100221.00;;;;4956490;28;86841;-66
2022/05/23 03:28:03;;;;;;;1.37;1.23;;;8.50;99.90;8.50;100206.00;;;;4966672;28;88856;-66
2022/05/23 03:30:29;;;;;;;1.63;1.47;;;8.50;99.90;8.50;100205.00;;;;4956220;28;87760;-68
2022/05/23 03:32:59;;;;;;;0.90;0.90;;;8.60;99.90;8.50;100225.00;;;;4955619;28;90164;-66
2022/05/23 03:35:29;;;;;;;2.37;1.57;;;8.60;99.90;8.60;100222.00;;;;4955699;28;88606;-66
2022/05/23 03:37:55;;;;;;;2.13;1.80;;;8.60;99.90;8.60;100226.00;;;;4955817;28;88584;-66
2022/05/23 03:40:27;;;;;;;1.73;1.60;;;8.60;99.90;8.60;100225.00;;;;4955570;28;97782;-66
2022/05/23 03:42:54;;;;;;;1.70;1.60;;;8.60;99.90;8.60;100226.00;;;;4956036;28;98180;-67
2022/05/23 03:45:24;;;;;;;3.80;1.97;;;8.70;99.90;8.70;100228.00;;;;4970909;28;97196;-67
2022/05/23 03:47:54;;;;;;;1.57;1.47;;;8.70;99.90;8.70;100256.00;;;;4970818;28;87874;-67
2022/05/23 03:50:27;;;;;;;1.30;1.20;;;8.80;99.90;8.80;100253.00;;;;4970869;28;102760;-66
2022/05/23 03:52:53;;;;;;;1.80;1.67;;;8.80;99.90;8.80;100245.00;;;;4955189;28;88892;-66
2022/05/23 03:55:20;;;;;;;2.23;1.63;;;8.80;99.90;8.80;100243.00;;;;4956212;28;87976;-66
2022/05/23 03:57:45;;;;;;;1.57;1.47;;;8.80;99.90;8.80;100241.00;;;;4954831;28;108843;-66
2022/05/23 04:00:12;;;;;;;2.20;1.57;;;8.80;99.90;8.80;100239.00;;;;4954457;28;111235;-66
2022/05/23 04:02:39;;;;;;;2.40;2.20;;;8.80;99.90;8.90;100231.00;;;;4955586;28;87752;-66
2022/05/23 04:05:05;;;;;;;6.60;1.80;;;8.90;99.90;9.00;100237.00;;;;4956124;28;88360;-68
2022/05/23 04:07:34;;;;;;;1.63;1.53;;;9.00;99.90;9.10;100233.00;;;;4954233;28;109961;-67
2022/05/23 04:10:00;;;;;;;5.27;1.63;;;9.00;99.90;9.20;100230.00;;;;4954967;28;101346;-67
2022/05/23 04:12:25;;;;;;;1.87;1.70;;;9.10;99.90;9.30;100237.00;;;;4954432;28;108841;-68
2022/05/23 04:14:51;;;;;;;4.43;1.73;;;9.20;99.90;9.40;100229.00;;;;4954786;28;115920;-68
2022/05/23 04:17:16;;;;;;;3.57;1.63;;;9.30;99.90;9.50;100237.00;;;;4954283;28;117589;-68
2022/05/23 04:19:42;;;;;;;1.60;1.23;;;9.50;99.90;9.70;100234.00;;;;4954736;28;108130;-68
2022/05/23 04:22:08;;;;;;;1.60;1.43;;;9.60;99.90;9.80;100235.00;;;;4955899;28;87791;-68
2022/05/23 04:24:33;;;;;;;1.83;1.50;;;9.70;99.90;9.90;100241.00;;;;4953806;28;117958;-67
2022/05/23 04:26:59;;;;;;;3.23;1.70;;;9.90;99.90;10.10;100225.00;;;;4953168;28;117217;-67
2022/05/23 04:29:25;;;;;;;2.27;2.07;;;10.00;99.90;10.20;100228.00;;;;4955883;28;87764;-67
2022/05/23 04:31:51;;;;;;;5.03;1.83;;;10.10;99.90;10.40;100237.00;;;;4953526;28;88170;-67
2022/05/23 04:37:02;;;;;;;2.47;1.87;;;10.40;99.90;10.60;100250.00;;;;4968513;28;87581;-66
2022/05/23 04:39:28;;;;;;;1.80;1.30;;;10.60;99.90;10.80;100248.00;;;;4957833;28;104880;-66
2022/05/23 04:42:50;;;;;;;3.47;2.10;;;10.70;99.90;10.90;100249.00;;;;4949195;28;89156;-65
2022/05/23 04:45:16;;;;;;;1.23;1.13;;;10.90;99.90;11.10;100245.00;;;;4940682;28;87824;-66
2022/05/23 04:50:27;;;;;;;1.70;1.10;;;11.20;99.90;11.40;100235.00;;;;4972130;28;87762;-66
2022/05/23 04:52:54;;;;;;;4.30;1.60;;;11.30;99.90;11.60;100234.00;;;;4935917;28;101540;-66
2022/05/23 04:55:20;;;;;;;1.53;1.43;;;11.50;99.90;11.70;100238.00;;;;4954996;28;89127;-67
2022/05/23 04:57:46;;;;;;;1.60;1.50;;;11.60;99.90;11.90;100225.00;;;;4954466;28;87816;-67
2022/05/23 05:00:18;;;;;;;1.53;1.20;;;11.80;99.90;12.00;100222.00;;;;4954514;28;108919;-66
2022/05/23 05:02:45;;;;;;;1.90;1.27;;;11.90;99.90;12.20;100222.00;;;;4955062;28;87722;-66
2022/05/23 05:05:12;;;;;;;2.70;1.60;;;12.10;99.90;12.40;100223.00;;;;4955393;28;90110;-67
2022/05/23 05:07:38;;;;;;;1.63;1.27;;;12.20;99.90;12.50;100224.00;;;;4968051;28;101461;-67
2022/05/23 05:10:05;;;;;;;1.27;1.07;;;12.40;99.90;12.70;100220.00;;;;4954204;28;97095;-66
2022/05/23 05:12:31;;;;;;;7.13;1.30;;;12.50;99.90;12.80;100205.00;;;;4954998;28;88196;-66
2022/05/23 05:14:58;;;;;;;1.43;1.33;;;12.70;99.90;13.00;100203.00;;;;4954979;28;112059;-68
2022/05/23 05:17:25;;;;;;;1.37;1.27;;;12.80;99.90;13.10;100196.00;;;;4954553;28;88350;-66
2022/05/23 05:19:51;;;;;;;2.33;1.53;;;13.00;99.90;13.30;100198.00;;;;4954505;28;100068;-66
2022/05/23 05:22:17;;;;;;;1.67;1.43;;;13.10;99.90;13.40;100195.00;;;;4954601;28;109106;-67
2022/05/23 05:24:43;;;;;;;1.50;1.23;;;13.30;99.90;13.60;100195.00;;;;4953873;28;87735;-66
2022/05/23 05:27:10;;;;;;;0.80;0.80;;;13.40;99.90;13.70;100186.00;;;;4954228;28;95891;-66
2022/05/23 05:29:36;;;;;;;2.60;1.57;;;13.60;99.90;13.90;100174.00;;;;4954724;28;87918;-66
2022/05/23 05:32:10;;;;;;;1.53;1.17;;;13.70;99.90;14.10;100171.00;;;;4953845;28;99297;-65
2022/05/23 05:34:46;;;;;;;1.37;1.20;;;13.90;99.90;14.20;100175.00;;;;4969340;28;103296;-67
2022/05/23 05:37:46;;;;;;;1.50;1.40;;;14.10;99.90;14.40;100180.00;;;;4953625;28;108248;-65
2022/05/23 05:40:16;;;;;;;1.23;1.13;;;14.20;99.90;14.60;100171.00;;;;4948262;28;87690;-65
2022/05/23 05:42:49;;;;;;;2.33;1.50;;;14.40;99.90;14.80;100161.00;;;;4955565;28;87746;-66
2022/05/23 05:45:24;;;;;;;1.77;1.13;;;14.60;99.90;15.00;100160.00;;;;4966230;28;88119;-66
2022/05/23 05:47:51;;;;;;;0.70;0.65;;;14.80;99.90;15.20;100157.00;;;;4939086;28;87970;-65
2022/05/23 05:50:31;;;;;;;1.27;0.98;;;15.00;99.90;15.30;100163.00;;;;4958139;28;86954;-65
2022/05/23 05:53:05;;;;;;;1.02;0.70;;;15.10;99.90;15.50;100165.00;;;;4972079;28;96202;-67
2022/05/23 05:55:31;;;;;;;1.02;0.82;;;15.30;99.90;15.70;100166.00;;;;4955833;28;90650;-65
2022/05/23 05:57:58;;;;;;;1.02;0.93;;;15.50;99.80;15.90;100161.00;;;;4952577;28;118914;-65
2022/05/23 06:00:24;;;;;;;1.75;1.13;;;15.60;99.70;16.10;100161.00;;;;4937479;28;104193;-66
2022/05/23 06:02:50;;;;;;;1.00;0.80;;;15.90;99.30;16.30;100164.00;;;;4937193;28;100224;-65
2022/05/23 06:05:17;;;;;;;3.45;0.85;;;16.10;98.50;16.50;100163.00;;;;4937890;28;89000;-67
2022/05/23 06:11:27;;;;;;;0.70;0.55;;;16.40;97.10;16.90;100155.00;;;;4934569;28;87905;-67
2022/05/23 06:13:22;;;;;;;2.88;1.27;;;16.70;96.90;17.20;100155.00;;;;4925104;28;87865;-66
2022/05/23 06:15:47;;;;;;;0.93;0.70;;;17.00;95.40;17.50;100151.00;;;;4936531;28;117756;-67
2022/05/23 06:18:13;;;;;;;0.50;0.50;;;17.20;94.40;17.70;100156.00;;;;4936250;28;115171;-66
2022/05/23 06:20:40;;;;;;;1.02;0.75;;;17.40;93.60;18.00;100158.00;;;;4937633;28;87737;-66
2022/05/23 06:23:05;;;;;;;2.38;0.70;;;17.70;92.90;18.30;100148.00;;;;4936373;28;88726;-65
2022/05/23 06:25:32;;;;;;;0.80;0.80;;;18.00;88.70;18.50;100146.00;;;;4951461;28;111338;-66
2022/05/23 06:27:57;;;;;;;0.80;0.68;;;18.30;83.20;18.60;100147.00;;;;4957030;28;87913;-66
2022/05/23 06:30:24;;;;;;;2.05;0.63;;;18.40;83.40;18.80;100145.00;;;;4957219;28;87913;-67
2022/05/23 06:32:51;;;;;;;0.30;0.30;;;18.50;83.10;19.00;100144.00;;;;4958017;28;87446;-67
2022/05/23 06:35:17;;;;;;;0.75;0.75;;;18.70;81.50;19.30;100137.00;;;;4939235;28;88140;-66
2022/05/23 06:37:44;;;;;;;1.10;0.85;;;19.00;77.30;19.60;100135.00;;;;4957220;28;88751;-67
2022/05/23 06:40:13;;;;;;;0.63;0.35;;;19.30;76.50;19.80;100124.00;;;;4956832;28;89912;-66
2022/05/23 06:42:39;;;;;;;0.47;0.47;;;19.50;71.50;19.90;100125.00;;;;4957281;28;87811;-66
2022/05/23 06:45:07;;;;;;;0.60;0.60;;;19.60;71.10;20.00;100116.00;;;;4966150;28;110406;-66
2022/05/23 06:47:34;;;;;;;1.38;0.55;;;19.70;69.00;20.20;100125.00;;;;4974977;28;108994;-67
2022/05/23 06:50:00;;;;;;;0.30;0.30;;;19.90;65.70;20.30;100113.00;;;;4956202;28;100352;-67
2022/05/23 06:52:25;;;;;;;0.60;0.60;;;19.90;63.10;20.40;100115.00;;;;4956269;28;108368;-66
2022/05/23 06:54:51;;;;;;;0.60;0.60;;;20.10;62.90;20.50;100122.00;;;;4956032;28;109333;-67
2022/05/23 06:57:17;;;;;;;0.55;0.52;;;20.20;63.60;20.60;100122.00;;;;4955442;28;116295;-66
2022/05/23 06:59:43;;;;;;;0.77;0.57;;;20.30;60.70;20.50;100123.00;;;;4955242;28;110287;-67
2022/05/23 07:02:10;;;;;;;3.33;0.60;;;20.30;58.30;20.50;100118.00;;;;4971344;28;87634;-68
2022/05/23 07:12:52;;;;;;;0.60;0.60;;;20.20;57.50;20.40;100118.00;;;;4954306;28;88698;-67
2022/05/23 07:15:18;;;;;;;2.28;0.50;;;20.20;57.20;20.40;100106.00;;;;4955531;28;117330;-66
2022/05/23 07:17:44;;;;;;;0.70;0.70;;;20.20;57.20;20.50;100119.00;;;;4955103;28;116925;-67
2022/05/23 07:20:11;;;;;;;0.52;0.32;;;20.20;57.00;20.50;100107.00;;;;4956244;28;87802;-67
2022/05/23 07:22:37;;;;;;;0.38;0.38;;;20.20;56.70;20.40;100122.00;;;;4956335;28;87645;-67
2022/05/23 07:25:03;;;;;;;0.63;0.45;;;20.20;56.50;20.30;100123.00;;;;4955381;28;109942;-67
2022/05/23 07:27:30;;;;;;;1.90;0.80;;;20.20;56.30;20.30;100135.00;;;;4955663;28;88011;-66
2022/05/23 07:29:55;;;;;;;0.60;0.60;;;20.10;56.90;20.40;100127.00;;;;4956167;28;109937;-66
2022/05/23 07:32:21;;;;;;;0.50;0.45;;;20.10;57.30;20.30;100126.00;;;;4956006;28;103522;-66
2022/05/23 07:34:47;;;;;;;1.42;0.88;;;20.10;56.70;20.40;100129.00;;;;4954983;28;117090;-68
2022/05/23 07:37:15;;;;;;;1.95;0.90;;;20.10;56.70;20.40;100126.00;;;;4936073;28;118369;-67
2022/05/23 07:39:41;;;;;;;2.53;0.63;;;20.10;56.60;20.40;100124.00;;;;4955855;28;87805;-68
2022/05/23 07:42:08;;;;;;;1.42;0.40;;;20.10;56.60;20.30;100127.00;;;;4954719;28;108056;-66
2022/05/23 07:44:36;;;;;;;0.93;0.70;;;20.10;56.70;20.40;100121.00;;;;4962413;28;88722;-68
2022/05/23 07:47:06;;;;;;;0.55;0.45;;;20.10;56.60;20.40;100113.00;;;;4970087;28;87911;-66
2022/05/23 07:49:34;;;;;;;1.00;0.52;;;20.20;56.50;20.60;100108.00;;;;4955569;28;87700;-67
2022/05/23 07:52:02;;;;;;;2.05;0.52;;;20.30;56.70;20.70;100122.00;;;;4936550;28;87800;-69
2022/05/23 08:02:41;;;;;;;0.63;0.60;;;20.70;55.40;21.10;100102.00;;;;4964632;28;88782;-70
2022/05/23 08:05:08;;;;;;;0.75;0.50;;;20.80;55.10;21.20;100100.00;;;;4955689;28;87968;-71
2022/05/23 08:07:34;;;;;;;0.52;0.40;;;20.90;55.00;21.20;100106.00;;;;4956013;28;87909;-70
2022/05/23 08:10:00;;;;;;;1.05;0.73;;;20.90;54.80;21.10;100099.00;;;;4955881;28;87640;-71
2022/05/23 08:12:28;;;;;;;0.98;0.55;;;20.90;54.80;21.20;100099.00;;;;4954926;28;87927;-68
2022/05/23 08:14:54;;;;;;;2.58;0.52;;;20.90;54.70;21.20;100091.00;;;;4955404;28;88145;-68
2022/05/23 08:17:20;;;;;;;2.42;0.95;;;20.90;54.50;21.20;100092.00;;;;4955231;28;113178;-69
2022/05/23 08:19:45;;;;;;;0.60;0.43;;;20.90;54.50;21.20;100082.00;;;;4955751;28;86980;-69
2022/05/23 08:22:11;;;;;;;0.65;0.65;;;21.00;54.70;21.10;100085.00;;;;4954891;28;103740;-69
2022/05/23 08:24:37;;;;;;;0.82;0.63;;;20.90;54.80;21.10;100076.00;;;;4933682;28;88151;-68
2022/05/23 08:27:04;;;;;;;0.70;0.55;;;20.90;55.60;21.20;100075.00;;;;4934837;28;88883;-68
2022/05/23 08:29:31;;;;;;;0.60;0.52;;;20.90;55.40;21.30;100075.00;;;;4936195;28;88310;-70
2022/05/23 08:31:58;;;;;;;0.80;0.77;;;21.00;54.80;21.30;100059.00;;;;4935058;28;87843;-69
2022/05/23 08:34:24;;;;;;;2.22;0.63;;;21.00;54.20;21.40;100060.00;;;;4935040;28;106536;-70
2022/05/23 08:36:52;;;;;;;2.35;0.82;;;21.10;54.80;21.50;100062.00;;;;4917684;28;87883;-70
2022/05/23 08:39:17;;;;;;;0.68;0.68;;;21.20;54.60;21.70;100061.00;;;;4935333;28;87948;-69
2022/05/23 08:41:45;;;;;;;0.88;0.77;;;21.30;54.60;21.70;100057.00;;;;4933891;28;99376;-70
2022/05/23 08:44:18;;;;;;;1.83;0.70;;;21.40;53.80;21.60;100059.00;;;;4933620;28;94699;-70
2022/05/23 08:47:08;;;;;;;0.77;0.77;;;21.40;53.20;21.70;100052.00;;;;4935283;28;88049;-69
2022/05/23 08:49:45;;;;;;;0.75;0.50;;;21.40;53.30;21.70;100047.00;;;;4938059;28;87890;-68
2022/05/23 08:52:34;;;;;;;0.57;0.57;;;21.40;53.00;21.70;100051.00;;;;4934673;28;88560;-70
2022/05/23 08:55:30;;;;;;;0.68;0.55;;;21.50;53.20;21.80;100035.00;;;;4925492;28;88454;-71
2022/05/23 08:58:37;;;;;;;0.52;0.50;;;21.50;52.70;21.70;100036.00;;;;4935481;28;88070;-69
2022/05/23 09:01:11;;;;;;;2.50;0.95;;;21.50;52.20;21.60;100031.00;;;;4913802;28;87709;-71
2022/05/23 09:04:04;;;;;;;1.05;0.60;;;21.40;52.40;21.60;100024.00;;;;4939931;28;87879;-69
2022/05/23 09:06:46;;;;;;;0.30;0.30;;;21.40;52.50;21.70;100023.00;;;;4915357;28;89046;-69
2022/05/23 09:09:19;;;;;;;1.48;0.40;;;21.40;52.80;21.70;100016.00;;;;4963488;28;87954;-71
2022/05/23 09:11:50;;;;;;;1.75;0.93;;;21.40;51.60;21.70;100013.00;;;;4934328;28;100556;-69
2022/05/23 09:14:19;;;;;;;0.70;0.60;;;21.40;52.30;21.60;100011.00;;;;4918300;28;87740;-69
2022/05/23 09:16:54;;;;;;;1.65;0.63;;;21.40;52.00;21.60;100026.00;;;;4938039;28;87900;-70
2022/05/23 09:19:27;;;;;;;0.73;0.65;;;21.40;52.00;21.70;100012.00;;;;4949453;28;107355;-69
2022/05/23 09:22:12;;;;;;;0.77;0.77;;;21.40;52.00;21.90;100013.00;;;;4968519;28;102805;-69
2022/05/23 09:25:07;;;;;;;1.65;0.43;;;21.60;52.20;22.10;100010.00;;;;4927837;28;87817;-70
2022/05/23 09:27:38;;;;;;;1.85;1.23;;;21.70;51.80;22.30;100008.00;;;;4957468;28;87725;-69
2022/05/23 09:30:19;;;;;;;0.40;0.40;;;21.90;51.70;22.40;100003.00;;;;4957887;28;92712;-68
2022/05/23 09:32:57;;;;;;;0.57;0.57;;;22.00;50.70;22.60;100004.00;;;;4958107;28;87832;-71
2022/05/23 09:35:36;;;;;;;0.90;0.90;;;22.20;51.10;22.70;100010.00;;;;4939381;28;87775;-68
2022/05/23 09:38:31;;;;;;;0.43;0.43;;;22.40;50.60;22.90;100003.00;;;;4939456;28;88259;-68
2022/05/23 09:40:58;;;;;;;0.47;0.47;;;22.60;50.30;23.00;99997.00;;;;4967094;28;88030;-69
2022/05/23 09:49:26;;;;;;;0.40;0.30;;;22.90;49.20;23.50;99985.00;;;;4952464;28;88001;-70
2022/05/23 09:51:59;;;;;;;2.33;0.77;;;23.10;49.20;23.50;99976.00;;;;4957509;28;88549;-69
2022/05/23 09:54:46;;;;;;;0.50;0.50;;;23.20;48.70;23.40;99984.00;;;;4958274;28;87822;-68
2022/05/23 09:57:27;;;;;;;0.73;0.73;;;23.20;48.10;23.50;99975.00;;;;4972163;28;87855;-68
2022/05/23 10:00:10;;;;;;;2.38;0.70;;;23.20;48.60;23.70;99976.00;;;;4957585;28;88254;-68
2022/05/23 10:02:48;;;;;;;0.77;0.60;;;23.20;48.90;23.90;99975.00;;;;4922920;28;87770;-71
2022/05/23 10:05:34;;;;;;;1.00;0.70;;;23.50;48.30;23.90;99968.00;;;;4958285;28;87172;-70
2022/05/23 10:08:04;;;;;;;0.55;0.50;;;23.60;47.20;24.00;99961.00;;;;4939227;28;87968;-68
2022/05/23 10:10:38;;;;;;;0.50;0.47;;;23.70;47.80;24.10;99959.00;;;;4971637;28;87844;-69
2022/05/23 10:13:51;;;;;;;1.15;0.90;;;23.70;47.20;24.00;99963.00;;;;4938480;28;88780;-68
2022/05/23 10:16:26;;;;;;;0.70;0.65;;;23.80;47.40;23.90;99957.00;;;;4944854;28;87680;-68
2022/05/23 10:19:03;;;;;;;0.68;0.60;;;23.70;47.60;23.90;99941.00;;;;4938814;28;87611;-71
2022/05/23 10:21:32;;;;;;;0.73;0.63;;;23.50;47.40;24.10;99928.00;;;;4957271;28;88352;-70
2022/05/23 10:24:16;;;;;;;1.48;0.95;;;23.70;47.80;24.40;99942.00;;;;4956802;28;88541;-70
2022/05/23 10:26:52;;;;;;;2.67;0.70;;;23.90;47.00;24.40;99922.00;;;;4956753;28;92351;-69
2022/05/23 10:29:57;;;;;;;0.40;0.40;;;24.00;46.30;24.40;99914.00;;;;4938156;28;100778;-70
2022/05/23 10:32:48;;;;;;;5.90;1.00;;;24.00;45.90;24.40;99910.00;;;;4932001;28;86922;-71
2022/05/23 10:35:37;;;;;;;0.75;0.60;;;24.00;46.00;24.50;99909.00;;;;4971708;28;87896;-69
2022/05/23 10:44:09;;;;;;;0.88;0.88;;;24.20;46.50;24.70;99894.00;;;;4958824;28;87761;-69
2022/05/23 10:46:36;;;;;;;1.48;0.60;;;24.30;46.20;24.70;99887.00;;;;4971033;28;88287;-69
2022/05/23 10:49:26;;;;;;;1.98;0.90;;;24.30;46.60;24.50;99881.00;;;;4956215;28;103828;-71
2022/05/23 10:52:11;;;;;;;0.77;0.70;;;24.20;46.40;24.30;99882.00;;;;4937761;28;88125;-68
2022/05/23 10:55:16;;;;;;;0.40;0.40;;;24.00;46.20;24.10;99877.00;;;;4956806;28;88111;-71
2022/05/23 10:58:09;;;;;;;0.77;0.60;;;23.90;46.00;24.00;99874.00;;;;4919229;28;88417;-71
2022/05/23 11:01:20;;;;;;;0.90;0.77;;;23.80;45.80;24.00;99867.00;;;;4941978;28;87074;-71
2022/05/23 11:04:38;;;;;;;1.30;1.10;;;23.70;45.20;23.90;99864.00;;;;4940901;28;100958;-68
2022/05/23 11:07:27;;;;;;;0.70;0.70;;;23.70;45.30;24.10;99872.00;;;;4936501;28;88026;-70
2022/05/23 11:10:23;;;;;;;0.40;0.40;;;23.70;45.50;24.30;99867.00;;;;4954750;28;105446;-70
2022/05/23 11:13:11;;;;;;;1.38;0.60;;;23.90;45.00;24.50;99865.00;;;;4969889;28;88336;-69
2022/05/23 11:16:19;;;;;;;1.48;0.50;;;24.10;44.70;24.60;99860.00;;;;4936746;28;94474;-72
2022/05/23 11:19:20;;;;;;;0.80;0.80;;;24.30;44.20;24.50;99864.00;;;;4937144;28;89118;-69
2022/05/23 11:22:01;;;;;;;0.40;0.40;;;24.20;44.30;24.70;99857.00;;;;4971025;28;88015;-69
2022/05/23 11:24:38;;;;;;;1.33;0.93;;;24.30;44.60;25.00;99839.00;;;;4934455;28;87627;-71
2022/05/23 11:35:48;;;;;;;1.10;0.77;;;25.30;42.80;26.00;99823.00;;;;4960484;28;88057;-70
2022/05/23 11:38:19;;;;;;;0.63;0.63;;;25.50;42.80;25.90;99825.00;;;;4922219;28;88763;-70
2022/05/23 11:41:10;;;;;;;1.90;0.75;;;25.60;42.30;25.70;99820.00;;;;4916143;28;89042;-72
2022/05/23 11:43:37;;;;;;;0.77;0.75;;;25.40;42.80;25.90;99809.00;;;;4916862;28;87836;-70
2022/05/23 11:46:10;;;;;;;1.95;0.73;;;25.50;42.60;25.90;99795.00;;;;4950144;28;98971;-71
2022/05/23 11:48:43;;;;;;;0.95;0.60;;;25.50;42.10;25.80;99799.00;;;;4949575;28;87772;-70
2022/05/23 11:51:17;;;;;;;1.77;0.80;;;25.40;41.90;25.40;99795.00;;;;4949693;28;87920;-71
2022/05/23 11:53:59;;;;;;;2.28;0.95;;;25.30;42.10;25.30;99793.00;;;;4935114;28;88169;-69
2022/05/23 11:56:43;;;;;;;2.15;0.60;;;25.10;42.30;24.80;99793.00;;;;4956196;28;87210;-69
2022/05/23 11:59:25;;;;;;;1.27;0.75;;;24.70;43.00;24.70;99783.00;;;;4935730;28;89057;-69
2022/05/23 12:02:09;;;;;;;2.85;0.63;;;24.50;44.00;24.80;99784.00;;;;4935049;28;100403;-70
2022/05/23 12:04:54;;;;;;;1.90;1.13;;;24.50;44.60;24.80;99775.00;;;;4934951;28;89063;-71
2022/05/23 12:07:39;;;;;;;4.30;0.70;;;24.50;44.60;24.70;99777.00;;;;4935793;28;87808;-69
2022/05/23 12:10:24;;;;;;;1.88;0.60;;;24.40;45.30;24.80;99771.00;;;;4934655;28;89106;-71